Bishu Highway — 7JFK — position and weather

sailwx.info

Track history (hours):
 
Tides and Currents Weather Stations Pressure Air Temp Water Temp Dewpoint Dewpoint Depression Visibility Wind Speed Wind Dir Waves Ship Positions

Bishu Highway

Last reported at 2018-Jan-12 14:58 UTC. Time now 2018-Jan-20 23:06 UTC.
Position N 34°38' E 139°29'.
Warning: this ship's position is 8 days out of date.

Length 199 m; draft 8.2 m.

Type: Cargo ship. MMSI: 432716000.

Date/timePositionNaut miles runAvg speedWind from/ knotsBaromVisibWave heightAir tempDewpointWater temp
2018-Jan-12 14:58N 34°38' E 139°29'610.2
2018-Jan-12 14:26N 34°36' E 139°23'4 9.1
2018-Jan-12 14:00N 34°35' E 139°18'510.8
2018-Jan-12 13:30N 34°34' E 139°12'5 9.3
2018-Jan-12 13:01N 34°32' E 139°07'4 8.9
2018-Jan-12 12:30N 34°30' E 139°02'611.2
2018-Jan-12 12:00N 34°29' E 138°55'5 8.8
2018-Jan-12 11:28N 34°30' E 138°49'4 9.1
2018-Jan-12 10:59N 34°31' E 138°44'4 8.7
2018-Jan-12 10:29N 34°33' E 138°39'4 9.1
2018-Jan-12 10:01N 34°35' E 138°34'4 8.8
2018-Jan-12 09:30N 34°36' E 138°29'5 8.9
2018-Jan-12 08:58N 34°37' E 138°23'4 8.5
2018-Jan-12 08:30N 34°38' E 138°19'4 7.9
2018-Jan-12 08:00N 34°38' E 138°14'1 1.8
2018-Jan-12 07:30N 34°37' E 138°13'0 0.0
2018-Jan-12 07:00N 34°37' E 138°13'0 0.0
2018-Jan-12 06:30N 34°37' E 138°13'0 0.0
2018-Jan-12 06:00N 34°37' E 138°13'0 0.0
2018-Jan-12 05:30N 34°37' E 138°13'0 0.0
2018-Jan-12 05:00N 34°37' E 138°13'0 0.0
2018-Jan-12 04:30N 34°37' E 138°13'0 0.0
2018-Jan-12 04:00N 34°37' E 138°13'0 0.0
2018-Jan-12 03:30N 34°37' E 138°13'0 0.0
2018-Jan-12 03:00N 34°37' E 138°13'0 0.0
2018-Jan-12 02:30N 34°37' E 138°13'0 0.0
2018-Jan-12 02:00N 34°37' E 138°13'0 0.0
2018-Jan-12 01:30N 34°37' E 138°13'0 0.0
2018-Jan-12 00:54N 34°37' E 138°13'0 0.0
2018-Jan-12 00:30N 34°37' E 138°13'0 0.0
2018-Jan-12 00:00N 34°37' E 138°13'0 0.0
2018-Jan-11 23:30N 34°37' E 138°13'0 0.0
2018-Jan-11 23:00N 34°37' E 138°13'0 0.0
2018-Jan-11 22:24N 34°37' E 138°13'0 0.0
2018-Jan-11 22:00N 34°37' E 138°13'0 0.0
2018-Jan-11 21:24N 34°37' E 138°13'0 0.0
2018-Jan-11 21:00N 34°37' E 138°13'0 0.0
2018-Jan-11 20:30N 34°37' E 138°13'0 0.0
2018-Jan-11 20:00N 34°37' E 138°13'0 0.0
2018-Jan-11 19:30N 34°37' E 138°13'0 0.0
2018-Jan-11 19:00N 34°37' E 138°13'0 0.0
2018-Jan-11 18:30N 34°37' E 138°13'0 0.0
2018-Jan-11 18:00N 34°37' E 138°13'0 0.0
2018-Jan-11 17:24N 34°37' E 138°13'0 0.0
2018-Jan-11 17:00N 34°37' E 138°13'0 0.0
2018-Jan-11 16:30N 34°37' E 138°13'0 0.0
2018-Jan-11 16:00N 34°37' E 138°13'0 0.0
2018-Jan-11 15:30N 34°37' E 138°13'0 0.0
2018-Jan-11 15:00N 34°37' E 138°13'0 0.0
2018-Jan-11 14:30N 34°37' E 138°13'0 0.0
2018-Jan-11 13:57N 34°37' E 138°13'0 0.0
2018-Jan-11 13:24N 34°37' E 138°13'0 0.0
2018-Jan-11 13:00N 34°37' E 138°13'0 0.0
2018-Jan-11 12:30N 34°37' E 138°13'0 0.0
2018-Jan-11 12:00N 34°37' E 138°13'0 0.0
2018-Jan-11 11:18N 34°37' E 138°13'0 0.0
2018-Jan-11 11:00N 34°37' E 138°13'0 0.0
2018-Jan-11 10:30N 34°37' E 138°13'0 0.0
2018-Jan-11 10:00N 34°37' E 138°13'0 0.0
2018-Jan-11 09:30N 34°37' E 138°13'0 0.0
2018-Jan-11 09:00N 34°37' E 138°13'0 0.0
2018-Jan-11 08:27N 34°37' E 138°13'0 0.0
2018-Jan-11 08:00N 34°37' E 138°13'0 0.0
2018-Jan-11 07:30N 34°37' E 138°13'0 0.0
2018-Jan-11 07:00N 34°37' E 138°13'0 0.0
2018-Jan-11 06:30N 34°37' E 138°13'0 0.0
2018-Jan-11 06:00N 34°37' E 138°13'0 0.0
2018-Jan-11 05:30N 34°37' E 138°13'0 0.0
2018-Jan-11 04:54N 34°37' E 138°13'0 0.0
2018-Jan-11 04:30N 34°37' E 138°13'0 0.0
2018-Jan-11 03:48N 34°37' E 138°13'0 0.0
2018-Jan-11 03:30N 34°37' E 138°13'0 0.0
2018-Jan-11 03:00N 34°37' E 138°13'0 0.0
2018-Jan-11 02:30N 34°37' E 138°13'0 0.0
2018-Jan-11 02:00N 34°37' E 138°13'0 0.0
2018-Jan-11 01:30N 34°37' E 138°13'0 0.0
2018-Jan-11 01:00N 34°37' E 138°13'0 0.0
2018-Jan-11 00:21N 34°37' E 138°13'0 0.0
2018-Jan-10 23:57N 34°37' E 138°13'0 0.0
2018-Jan-10 23:22N 34°37' E 138°13'0 0.0
2018-Jan-10 22:54N 34°37' E 138°13'0 0.0
2018-Jan-10 22:27N 34°37' E 138°13'0 0.1
2018-Jan-10 22:00N 34°37' E 138°13'2 4.8
2018-Jan-10 21:30N 34°39' E 138°15'3 5.1
2018-Jan-10 21:00N 34°38' E 138°18'4 6.4
2018-Jan-10 20:23N 34°35' E 138°22'3 8.3
2018-Jan-10 19:59N 34°33' E 138°24'5 9.1
2018-Jan-10 19:29N 34°28' E 138°22'4 8.6
2018-Jan-10 19:00N 34°24' E 138°22'4 7.7
2018-Jan-10 18:28N 34°20' E 138°24'3 6.5
2018-Jan-10 17:57N 34°17' E 138°24'6 8.1
2018-Jan-10 17:16N 34°12' E 138°25'2 4.4
2018-Jan-10 16:52N 34°10' E 138°25'1 3.1
2018-Jan-10 16:26N 34°09' E 138°23'1 2.8
2018-Jan-10 16:00N 34°09' E 138°22'2 2.8
2018-Jan-10 15:27N 34°09' E 138°20'2 3.0
2018-Jan-10 14:56N 34°08' E 138°18'1 2.7
2018-Jan-10 14:30N 34°08' E 138°17'6 2.3
2018-Jan-10 12:03N 34°07' E 138°10'10 1.7
2018-Jan-10 06:29N 34°08' E 137°59'7 9.5
2018-Jan-10 05:47N 34°15' E 137°57'3 9.0
2018-Jan-10 05:28N 34°17' E 137°56'4 9.1
2018-Jan-10 05:00N 34°21' E 137°54'2 3.9
2018-Jan-10 04:29N 34°23' E 137°52'3 2.5
2018-Jan-10 03:19N 34°20' E 137°50'1 2.4
2018-Jan-10 02:48N 34°19' E 137°49'1 2.2
2018-Jan-10 02:18N 34°18' E 137°49'1 2.0
2018-Jan-10 01:40N 34°17' E 137°48'1 2.6
2018-Jan-10 01:25N 34°17' E 137°47'510.8
2018-Jan-10 00:59N 34°14' E 137°43'  
Track history (hours):
 
Tides and Currents Weather Stations Pressure Air Temp Water Temp Dewpoint Dewpoint Depression Visibility Wind Speed Wind Dir Waves Ship Positions

Bishu Highway

Last reported at 2018-Jan-12 14:58 UTC. Time now 2018-Jan-20 23:06 UTC.
Position N 34°38' E 139°29'.
Warning: this ship's position is 8 days out of date.

Length 199 m; draft 8.2 m.

Type: Cargo ship. MMSI: 432716000.

Date/timePositionNaut miles runAvg speedWind from/ knotsBaromVisibWave heightAir tempDewpointWater temp
2018-Jan-12 14:58N 34°38' E 139°29'610.2
2018-Jan-12 14:26N 34°36' E 139°23'4 9.1
2018-Jan-12 14:00N 34°35' E 139°18'510.8
2018-Jan-12 13:30N 34°34' E 139°12'5 9.3
2018-Jan-12 13:01N 34°32' E 139°07'4 8.9
2018-Jan-12 12:30N 34°30' E 139°02'611.2
2018-Jan-12 12:00N 34°29' E 138°55'5 8.8
2018-Jan-12 11:28N 34°30' E 138°49'4 9.1
2018-Jan-12 10:59N 34°31' E 138°44'4 8.7
2018-Jan-12 10:29N 34°33' E 138°39'4 9.1
2018-Jan-12 10:01N 34°35' E 138°34'4 8.8
2018-Jan-12 09:30N 34°36' E 138°29'5 8.9
2018-Jan-12 08:58N 34°37' E 138°23'4 8.5
2018-Jan-12 08:30N 34°38' E 138°19'4 7.9
2018-Jan-12 08:00N 34°38' E 138°14'1 1.8
2018-Jan-12 07:30N 34°37' E 138°13'0 0.0
2018-Jan-12 07:00N 34°37' E 138°13'0 0.0
2018-Jan-12 06:30N 34°37' E 138°13'0 0.0
2018-Jan-12 06:00N 34°37' E 138°13'0 0.0
2018-Jan-12 05:30N 34°37' E 138°13'0 0.0
2018-Jan-12 05:00N 34°37' E 138°13'0 0.0
2018-Jan-12 04:30N 34°37' E 138°13'0 0.0
2018-Jan-12 04:00N 34°37' E 138°13'0 0.0
2018-Jan-12 03:30N 34°37' E 138°13'0 0.0
2018-Jan-12 03:00N 34°37' E 138°13'0 0.0
2018-Jan-12 02:30N 34°37' E 138°13'0 0.0
2018-Jan-12 02:00N 34°37' E 138°13'0 0.0
2018-Jan-12 01:30N 34°37' E 138°13'0 0.0
2018-Jan-12 00:54N 34°37' E 138°13'0 0.0
2018-Jan-12 00:30N 34°37' E 138°13'0 0.0
2018-Jan-12 00:00N 34°37' E 138°13'0 0.0
2018-Jan-11 23:30N 34°37' E 138°13'0 0.0
2018-Jan-11 23:00N 34°37' E 138°13'0 0.0
2018-Jan-11 22:24N 34°37' E 138°13'0 0.0
2018-Jan-11 22:00N 34°37' E 138°13'0 0.0
2018-Jan-11 21:24N 34°37' E 138°13'0 0.0
2018-Jan-11 21:00N 34°37' E 138°13'0 0.0
2018-Jan-11 20:30N 34°37' E 138°13'0 0.0
2018-Jan-11 20:00N 34°37' E 138°13'0 0.0
2018-Jan-11 19:30N 34°37' E 138°13'0 0.0
2018-Jan-11 19:00N 34°37' E 138°13'0 0.0
2018-Jan-11 18:30N 34°37' E 138°13'0 0.0
2018-Jan-11 18:00N 34°37' E 138°13'0 0.0
2018-Jan-11 17:24N 34°37' E 138°13'0 0.0
2018-Jan-11 17:00N 34°37' E 138°13'0 0.0
2018-Jan-11 16:30N 34°37' E 138°13'0 0.0
2018-Jan-11 16:00N 34°37' E 138°13'0 0.0
2018-Jan-11 15:30N 34°37' E 138°13'0 0.0
2018-Jan-11 15:00N 34°37' E 138°13'0 0.0
2018-Jan-11 14:30N 34°37' E 138°13'0 0.0
2018-Jan-11 13:57N 34°37' E 138°13'0 0.0
2018-Jan-11 13:24N 34°37' E 138°13'0 0.0
2018-Jan-11 13:00N 34°37' E 138°13'0 0.0
2018-Jan-11 12:30N 34°37' E 138°13'0 0.0
2018-Jan-11 12:00N 34°37' E 138°13'0 0.0
2018-Jan-11 11:18N 34°37' E 138°13'0 0.0
2018-Jan-11 11:00N 34°37' E 138°13'0 0.0
2018-Jan-11 10:30N 34°37' E 138°13'0 0.0
2018-Jan-11 10:00N 34°37' E 138°13'0 0.0
2018-Jan-11 09:30N 34°37' E 138°13'0 0.0
2018-Jan-11 09:00N 34°37' E 138°13'0 0.0
2018-Jan-11 08:27N 34°37' E 138°13'0 0.0
2018-Jan-11 08:00N 34°37' E 138°13'0 0.0
2018-Jan-11 07:30N 34°37' E 138°13'0 0.0
2018-Jan-11 07:00N 34°37' E 138°13'0 0.0
2018-Jan-11 06:30N 34°37' E 138°13'0 0.0
2018-Jan-11 06:00N 34°37' E 138°13'0 0.0
2018-Jan-11 05:30N 34°37' E 138°13'0 0.0
2018-Jan-11 04:54N 34°37' E 138°13'0 0.0
2018-Jan-11 04:30N 34°37' E 138°13'0 0.0
2018-Jan-11 03:48N 34°37' E 138°13'0 0.0
2018-Jan-11 03:30N 34°37' E 138°13'0 0.0
2018-Jan-11 03:00N 34°37' E 138°13'0 0.0
2018-Jan-11 02:30N 34°37' E 138°13'0 0.0
2018-Jan-11 02:00N 34°37' E 138°13'0 0.0
2018-Jan-11 01:30N 34°37' E 138°13'0 0.0
2018-Jan-11 01:00N 34°37' E 138°13'0 0.0
2018-Jan-11 00:21N 34°37' E 138°13'0 0.0
2018-Jan-10 23:57N 34°37' E 138°13'0 0.0
2018-Jan-10 23:22N 34°37' E 138°13'0 0.0
2018-Jan-10 22:54N 34°37' E 138°13'0 0.0
2018-Jan-10 22:27N 34°37' E 138°13'0 0.1
2018-Jan-10 22:00N 34°37' E 138°13'2 4.8
2018-Jan-10 21:30N 34°39' E 138°15'3 5.1
2018-Jan-10 21:00N 34°38' E 138°18'4 6.4
2018-Jan-10 20:23N 34°35' E 138°22'3 8.3
2018-Jan-10 19:59N 34°33' E 138°24'5 9.1
2018-Jan-10 19:29N 34°28' E 138°22'4 8.6
2018-Jan-10 19:00N 34°24' E 138°22'4 7.7
2018-Jan-10 18:28N 34°20' E 138°24'3 6.5
2018-Jan-10 17:57N 34°17' E 138°24'6 8.1
2018-Jan-10 17:16N 34°12' E 138°25'2 4.4
2018-Jan-10 16:52N 34°10' E 138°25'1 3.1
2018-Jan-10 16:26N 34°09' E 138°23'1 2.8
2018-Jan-10 16:00N 34°09' E 138°22'2 2.8
2018-Jan-10 15:27N 34°09' E 138°20'2 3.0
2018-Jan-10 14:56N 34°08' E 138°18'1 2.7
2018-Jan-10 14:30N 34°08' E 138°17'6 2.3
2018-Jan-10 12:03N 34°07' E 138°10'10 1.7
2018-Jan-10 06:29N 34°08' E 137°59'7 9.5
2018-Jan-10 05:47N 34°15' E 137°57'3 9.0
2018-Jan-10 05:28N 34°17' E 137°56'4 9.1
2018-Jan-10 05:00N 34°21' E 137°54'2 3.9
2018-Jan-10 04:29N 34°23' E 137°52'3 2.5
2018-Jan-10 03:19N 34°20' E 137°50'1 2.4
2018-Jan-10 02:48N 34°19' E 137°49'1 2.2
2018-Jan-10 02:18N 34°18' E 137°49'1 2.0
2018-Jan-10 01:40N 34°17' E 137°48'1 2.6
2018-Jan-10 01:25N 34°17' E 137°47'510.8
2018-Jan-10 00:59N 34°14' E 137°43'  

Dump ship's entire track history